sensor_id;sensor_type;location;lat;lon;timestamp;P1;durP1;ratioP1;P2;durP2;ratioP2
17347;SDS011;8791;50.876;4.342;2023-11-19T00:00:16;9.73;;;5.00;;
17347;SDS011;8791;50.876;4.342;2023-11-19T00:02:43;11.10;;;5.10;;
17347;SDS011;8791;50.876;4.342;2023-11-19T00:05:10;6.97;;;4.60;;
17347;SDS011;8791;50.876;4.342;2023-11-19T00:07:37;10.30;;;4.50;;
17347;SDS011;8791;50.876;4.342;2023-11-19T00:10:06;13.10;;;4.17;;
17347;SDS011;8791;50.876;4.342;2023-11-19T00:12:36;6.43;;;3.70;;
17347;SDS011;8791;50.876;4.342;2023-11-19T00:15:05;10.43;;;4.47;;
17347;SDS011;8791;50.876;4.342;2023-11-19T00:17:36;10.87;;;4.37;;
17347;SDS011;8791;50.876;4.342;2023-11-19T00:20:04;14.00;;;5.30;;
17347;SDS011;8791;50.876;4.342;2023-11-19T00:22:32;10.47;;;4.13;;
17347;SDS011;8791;50.876;4.342;2023-11-19T00:24:58;9.00;;;4.03;;
17347;SDS011;8791;50.876;4.342;2023-11-19T00:27:25;13.73;;;4.73;;
17347;SDS011;8791;50.876;4.342;2023-11-19T00:29:53;17.53;;;4.77;;
17347;SDS011;8791;50.876;4.342;2023-11-19T00:32:20;8.23;;;4.43;;
17347;SDS011;8791;50.876;4.342;2023-11-19T00:34:47;12.87;;;4.30;;
17347;SDS011;8791;50.876;4.342;2023-11-19T00:37:14;12.30;;;4.40;;
17347;SDS011;8791;50.876;4.342;2023-11-19T00:39:41;13.20;;;4.07;;
17347;SDS011;8791;50.876;4.342;2023-11-19T00:42:08;12.37;;;3.87;;
17347;SDS011;8791;50.876;4.342;2023-11-19T00:44:36;13.17;;;3.43;;
17347;SDS011;8791;50.876;4.342;2023-11-19T00:47:04;14.80;;;3.37;;
17347;SDS011;8791;50.876;4.342;2023-11-19T00:49:31;17.90;;;3.60;;
17347;SDS011;8791;50.876;4.342;2023-11-19T00:51:58;21.57;;;4.37;;
17347;SDS011;8791;50.876;4.342;2023-11-19T00:54:27;11.70;;;3.60;;
17347;SDS011;8791;50.876;4.342;2023-11-19T00:56:54;14.87;;;3.77;;
17347;SDS011;8791;50.876;4.342;2023-11-19T00:59:21;14.90;;;3.40;;
17347;SDS011;8791;50.876;4.342;2023-11-19T01:01:48;28.40;;;3.93;;
17347;SDS011;8791;50.876;4.342;2023-11-19T01:04:17;15.33;;;3.67;;
17347;SDS011;8791;50.876;4.342;2023-11-19T01:06:44;16.63;;;3.47;;
17347;SDS011;8791;50.876;4.342;2023-11-19T01:09:11;14.03;;;3.40;;
17347;SDS011;8791;50.876;4.342;2023-11-19T01:11:38;18.00;;;4.23;;
17347;SDS011;8791;50.876;4.342;2023-11-19T01:14:04;17.50;;;3.67;;
17347;SDS011;8791;50.876;4.342;2023-11-19T01:16:31;16.57;;;3.80;;
17347;SDS011;8791;50.876;4.342;2023-11-19T01:18:58;13.83;;;3.70;;
17347;SDS011;8791;50.876;4.342;2023-11-19T01:21:30;22.20;;;4.20;;
17347;SDS011;8791;50.876;4.342;2023-11-19T01:23:57;20.60;;;4.13;;
17347;SDS011;8791;50.876;4.342;2023-11-19T01:26:24;14.50;;;4.00;;
17347;SDS011;8791;50.876;4.342;2023-11-19T01:28:51;20.77;;;4.57;;
17347;SDS011;8791;50.876;4.342;2023-11-19T01:31:18;22.97;;;4.30;;
17347;SDS011;8791;50.876;4.342;2023-11-19T01:33:45;23.73;;;4.83;;
17347;SDS011;8791;50.876;4.342;2023-11-19T01:36:12;20.73;;;4.90;;
17347;SDS011;8791;50.876;4.342;2023-11-19T01:38:41;14.17;;;4.60;;
17347;SDS011;8791;50.876;4.342;2023-11-19T01:41:08;25.87;;;5.33;;
17347;SDS011;8791;50.876;4.342;2023-11-19T01:43:36;20.43;;;5.10;;
17347;SDS011;8791;50.876;4.342;2023-11-19T01:46:04;19.40;;;5.20;;
17347;SDS011;8791;50.876;4.342;2023-11-19T01:48:34;18.53;;;5.80;;
17347;SDS011;8791;50.876;4.342;2023-11-19T01:51:04;21.27;;;5.97;;
17347;SDS011;8791;50.876;4.342;2023-11-19T01:53:33;20.63;;;5.47;;
17347;SDS011;8791;50.876;4.342;2023-11-19T01:56:02;25.70;;;6.27;;
17347;SDS011;8791;50.876;4.342;2023-11-19T01:58:31;35.27;;;6.27;;
17347;SDS011;8791;50.876;4.342;2023-11-19T02:00:59;32.30;;;5.27;;
17347;SDS011;8791;50.876;4.342;2023-11-19T02:03:28;29.80;;;5.77;;
17347;SDS011;8791;50.876;4.342;2023-11-19T02:05:57;21.13;;;4.83;;
17347;SDS011;8791;50.876;4.342;2023-11-19T02:08:25;26.90;;;4.63;;
17347;SDS011;8791;50.876;4.342;2023-11-19T02:10:52;20.33;;;4.87;;
17347;SDS011;8791;50.876;4.342;2023-11-19T02:13:21;30.93;;;5.67;;
17347;SDS011;8791;50.876;4.342;2023-11-19T02:15:48;28.80;;;5.20;;
17347;SDS011;8791;50.876;4.342;2023-11-19T02:18:19;32.07;;;5.23;;
17347;SDS011;8791;50.876;4.342;2023-11-19T02:20:46;32.03;;;4.93;;
17347;SDS011;8791;50.876;4.342;2023-11-19T02:23:14;25.53;;;4.43;;
17347;SDS011;8791;50.876;4.342;2023-11-19T02:25:42;27.43;;;4.47;;
17347;SDS011;8791;50.876;4.342;2023-11-19T02:28:16;26.53;;;4.83;;
17347;SDS011;8791;50.876;4.342;2023-11-19T02:30:43;26.33;;;4.70;;
17347;SDS011;8791;50.876;4.342;2023-11-19T02:33:10;30.53;;;5.10;;
17347;SDS011;8791;50.876;4.342;2023-11-19T02:35:38;33.83;;;5.37;;
17347;SDS011;8791;50.876;4.342;2023-11-19T02:38:05;31.67;;;5.43;;
17347;SDS011;8791;50.876;4.342;2023-11-19T02:40:33;30.93;;;5.40;;
17347;SDS011;8791;50.876;4.342;2023-11-19T02:43:00;24.43;;;4.20;;
17347;SDS011;8791;50.876;4.342;2023-11-19T02:45:31;24.20;;;5.10;;
17347;SDS011;8791;50.876;4.342;2023-11-19T02:47:58;32.67;;;4.83;;
17347;SDS011;8791;50.876;4.342;2023-11-19T02:50:27;23.63;;;4.07;;
17347;SDS011;8791;50.876;4.342;2023-11-19T02:52:54;29.93;;;5.43;;
17347;SDS011;8791;50.876;4.342;2023-11-19T02:55:22;26.90;;;3.93;;
17347;SDS011;8791;50.876;4.342;2023-11-19T02:57:49;26.80;;;4.40;;
17347;SDS011;8791;50.876;4.342;2023-11-19T03:00:18;21.77;;;4.57;;
17347;SDS011;8791;50.876;4.342;2023-11-19T03:02:58;22.63;;;3.67;;
17347;SDS011;8791;50.876;4.342;2023-11-19T03:05:30;23.93;;;3.90;;
17347;SDS011;8791;50.876;4.342;2023-11-19T03:07:57;27.30;;;4.23;;
17347;SDS011;8791;50.876;4.342;2023-11-19T03:10:24;24.13;;;3.77;;
17347;SDS011;8791;50.876;4.342;2023-11-19T03:12:51;27.27;;;3.83;;
17347;SDS011;8791;50.876;4.342;2023-11-19T03:15:20;17.47;;;4.20;;
17347;SDS011;8791;50.876;4.342;2023-11-19T03:17:47;28.27;;;4.40;;
17347;SDS011;8791;50.876;4.342;2023-11-19T03:20:15;26.43;;;4.00;;
17347;SDS011;8791;50.876;4.342;2023-11-19T03:22:42;43.93;;;5.50;;
17347;SDS011;8791;50.876;4.342;2023-11-19T03:25:09;29.03;;;3.80;;
17347;SDS011;8791;50.876;4.342;2023-11-19T03:27:36;31.23;;;4.80;;
17347;SDS011;8791;50.876;4.342;2023-11-19T03:30:05;25.10;;;3.63;;
17347;SDS011;8791;50.876;4.342;2023-11-19T03:32:34;23.40;;;4.00;;
17347;SDS011;8791;50.876;4.342;2023-11-19T03:35:02;24.57;;;3.93;;
17347;SDS011;8791;50.876;4.342;2023-11-19T03:37:31;35.20;;;4.70;;
17347;SDS011;8791;50.876;4.342;2023-11-19T03:39:58;29.50;;;4.37;;
17347;SDS011;8791;50.876;4.342;2023-11-19T03:42:25;27.37;;;3.60;;
17347;SDS011;8791;50.876;4.342;2023-11-19T03:44:52;27.70;;;4.37;;
17347;SDS011;8791;50.876;4.342;2023-11-19T03:47:20;33.13;;;4.77;;
17347;SDS011;8791;50.876;4.342;2023-11-19T03:49:47;38.43;;;4.93;;
17347;SDS011;8791;50.876;4.342;2023-11-19T03:52:15;24.67;;;4.53;;
17347;SDS011;8791;50.876;4.342;2023-11-19T03:54:43;26.30;;;4.00;;
17347;SDS011;8791;50.876;4.342;2023-11-19T03:57:10;22.33;;;3.17;;
17347;SDS011;8791;50.876;4.342;2023-11-19T03:59:37;33.80;;;4.67;;
17347;SDS011;8791;50.876;4.342;2023-11-19T04:02:04;27.83;;;4.07;;
17347;SDS011;8791;50.876;4.342;2023-11-19T04:04:31;26.10;;;3.93;;
17347;SDS011;8791;50.876;4.342;2023-11-19T04:06:58;29.33;;;4.03;;
17347;SDS011;8791;50.876;4.342;2023-11-19T04:09:25;26.63;;;4.33;;
17347;SDS011;8791;50.876;4.342;2023-11-19T04:11:54;34.33;;;4.03;;
17347;SDS011;8791;50.876;4.342;2023-11-19T04:14:20;31.97;;;4.93;;
17347;SDS011;8791;50.876;4.342;2023-11-19T04:16:47;32.47;;;4.40;;
17347;SDS011;8791;50.876;4.342;2023-11-19T04:19:14;28.90;;;4.67;;
17347;SDS011;8791;50.876;4.342;2023-11-19T04:21:41;22.63;;;3.87;;
17347;SDS011;8791;50.876;4.342;2023-11-19T04:24:08;33.97;;;4.37;;
17347;SDS011;8791;50.876;4.342;2023-11-19T04:26:39;31.17;;;4.37;;
17347;SDS011;8791;50.876;4.342;2023-11-19T04:29:08;35.70;;;4.70;;
17347;SDS011;8791;50.876;4.342;2023-11-19T04:31:36;39.27;;;5.37;;
17347;SDS011;8791;50.876;4.342;2023-11-19T04:34:03;28.13;;;4.13;;
17347;SDS011;8791;50.876;4.342;2023-11-19T04:36:30;30.77;;;4.60;;
17347;SDS011;8791;50.876;4.342;2023-11-19T04:38:58;33.80;;;5.10;;
17347;SDS011;8791;50.876;4.342;2023-11-19T04:41:25;38.47;;;4.83;;
17347;SDS011;8791;50.876;4.342;2023-11-19T04:43:52;35.83;;;4.83;;
17347;SDS011;8791;50.876;4.342;2023-11-19T04:46:21;35.10;;;5.33;;
17347;SDS011;8791;50.876;4.342;2023-11-19T04:48:48;33.47;;;5.03;;
17347;SDS011;8791;50.876;4.342;2023-11-19T04:51:15;39.73;;;6.30;;
17347;SDS011;8791;50.876;4.342;2023-11-19T04:53:43;41.43;;;5.27;;
17347;SDS011;8791;50.876;4.342;2023-11-19T04:56:10;33.83;;;5.37;;
17347;SDS011;8791;50.876;4.342;2023-11-19T04:58:38;33.83;;;5.50;;
17347;SDS011;8791;50.876;4.342;2023-11-19T05:01:05;37.43;;;5.90;;
17347;SDS011;8791;50.876;4.342;2023-11-19T05:03:33;47.33;;;5.83;;
17347;SDS011;8791;50.876;4.342;2023-11-19T05:06:01;34.30;;;6.10;;
17347;SDS011;8791;50.876;4.342;2023-11-19T05:08:28;45.90;;;5.80;;
17347;SDS011;8791;50.876;4.342;2023-11-19T05:10:55;35.03;;;4.83;;
17347;SDS011;8791;50.876;4.342;2023-11-19T05:13:22;45.53;;;4.97;;
17347;SDS011;8791;50.876;4.342;2023-11-19T05:15:49;44.70;;;5.30;;
17347;SDS011;8791;50.876;4.342;2023-11-19T05:18:16;30.77;;;4.70;;
17347;SDS011;8791;50.876;4.342;2023-11-19T05:20:45;33.47;;;5.13;;
17347;SDS011;8791;50.876;4.342;2023-11-19T05:23:14;31.70;;;4.80;;
17347;SDS011;8791;50.876;4.342;2023-11-19T05:25:41;38.17;;;5.40;;
17347;SDS011;8791;50.876;4.342;2023-11-19T05:28:08;43.33;;;4.97;;
17347;SDS011;8791;50.876;4.342;2023-11-19T05:30:35;30.13;;;4.50;;
17347;SDS011;8791;50.876;4.342;2023-11-19T05:33:02;38.63;;;5.60;;
17347;SDS011;8791;50.876;4.342;2023-11-19T05:35:29;43.37;;;5.20;;
17347;SDS011;8791;50.876;4.342;2023-11-19T05:37:57;33.03;;;5.23;;
17347;SDS011;8791;50.876;4.342;2023-11-19T05:40:24;41.80;;;5.13;;
17347;SDS011;8791;50.876;4.342;2023-11-19T05:42:51;40.33;;;5.80;;
17347;SDS011;8791;50.876;4.342;2023-11-19T05:45:17;42.87;;;5.47;;
17347;SDS011;8791;50.876;4.342;2023-11-19T05:47:44;36.13;;;6.57;;
17347;SDS011;8791;50.876;4.342;2023-11-19T05:50:11;36.53;;;5.47;;
17347;SDS011;8791;50.876;4.342;2023-11-19T05:52:39;33.50;;;4.70;;
17347;SDS011;8791;50.876;4.342;2023-11-19T05:55:07;49.60;;;5.63;;
17347;SDS011;8791;50.876;4.342;2023-11-19T05:57:35;33.43;;;5.73;;
17347;SDS011;8791;50.876;4.342;2023-11-19T06:00:02;49.43;;;6.07;;
17347;SDS011;8791;50.876;4.342;2023-11-19T06:02:33;37.10;;;5.67;;
17347;SDS011;8791;50.876;4.342;2023-11-19T06:05:02;41.23;;;5.63;;
17347;SDS011;8791;50.876;4.342;2023-11-19T06:07:30;37.37;;;5.53;;
17347;SDS011;8791;50.876;4.342;2023-11-19T06:09:57;45.27;;;5.23;;
17347;SDS011;8791;50.876;4.342;2023-11-19T06:12:26;47.93;;;6.63;;
17347;SDS011;8791;50.876;4.342;2023-11-19T06:14:54;40.37;;;5.53;;
17347;SDS011;8791;50.876;4.342;2023-11-19T06:17:21;39.23;;;5.73;;
17347;SDS011;8791;50.876;4.342;2023-11-19T06:19:48;39.27;;;5.90;;
17347;SDS011;8791;50.876;4.342;2023-11-19T06:22:16;33.30;;;5.40;;
17347;SDS011;8791;50.876;4.342;2023-11-19T06:24:42;41.13;;;5.27;;
17347;SDS011;8791;50.876;4.342;2023-11-19T06:27:09;44.83;;;6.33;;
17347;SDS011;8791;50.876;4.342;2023-11-19T06:29:37;40.37;;;5.80;;
17347;SDS011;8791;50.876;4.342;2023-11-19T06:32:05;39.37;;;5.33;;
17347;SDS011;8791;50.876;4.342;2023-11-19T06:34:33;38.20;;;5.87;;
17347;SDS011;8791;50.876;4.342;2023-11-19T06:37:00;43.00;;;6.77;;
17347;SDS011;8791;50.876;4.342;2023-11-19T06:39:28;30.93;;;4.80;;
17347;SDS011;8791;50.876;4.342;2023-11-19T06:41:55;29.20;;;4.70;;
17347;SDS011;8791;50.876;4.342;2023-11-19T06:44:22;40.30;;;4.60;;
17347;SDS011;8791;50.876;4.342;2023-11-19T06:46:51;34.20;;;5.00;;
17347;SDS011;8791;50.876;4.342;2023-11-19T06:49:18;32.67;;;5.40;;
17347;SDS011;8791;50.876;4.342;2023-11-19T06:51:45;47.67;;;6.30;;
17347;SDS011;8791;50.876;4.342;2023-11-19T06:54:12;42.17;;;5.73;;
17347;SDS011;8791;50.876;4.342;2023-11-19T06:56:39;42.13;;;5.93;;
17347;SDS011;8791;50.876;4.342;2023-11-19T06:59:06;35.30;;;5.00;;
17347;SDS011;8791;50.876;4.342;2023-11-19T07:01:36;40.83;;;5.07;;
17347;SDS011;8791;50.876;4.342;2023-11-19T07:04:05;43.77;;;5.50;;
17347;SDS011;8791;50.876;4.342;2023-11-19T07:06:34;36.63;;;4.73;;
17347;SDS011;8791;50.876;4.342;2023-11-19T07:09:01;45.97;;;6.23;;
17347;SDS011;8791;50.876;4.342;2023-11-19T07:11:34;36.77;;;4.87;;
17347;SDS011;8791;50.876;4.342;2023-11-19T07:14:01;34.60;;;5.97;;
17347;SDS011;8791;50.876;4.342;2023-11-19T07:16:29;40.93;;;5.27;;
17347;SDS011;8791;50.876;4.342;2023-11-19T07:18:56;47.03;;;5.23;;
17347;SDS011;8791;50.876;4.342;2023-11-19T07:21:25;56.77;;;5.73;;
17347;SDS011;8791;50.876;4.342;2023-11-19T07:23:53;29.90;;;5.03;;
17347;SDS011;8791;50.876;4.342;2023-11-19T07:26:20;40.57;;;5.83;;
17347;SDS011;8791;50.876;4.342;2023-11-19T07:28:47;36.40;;;5.33;;
17347;SDS011;8791;50.876;4.342;2023-11-19T07:31:14;37.67;;;5.13;;
17347;SDS011;8791;50.876;4.342;2023-11-19T07:33:41;32.50;;;5.33;;
17347;SDS011;8791;50.876;4.342;2023-11-19T07:36:09;47.17;;;5.43;;
17347;SDS011;8791;50.876;4.342;2023-11-19T07:38:37;35.10;;;4.87;;
17347;SDS011;8791;50.876;4.342;2023-11-19T07:41:04;27.67;;;5.33;;
17347;SDS011;8791;50.876;4.342;2023-11-19T07:43:34;42.20;;;5.60;;
17347;SDS011;8791;50.876;4.342;2023-11-19T07:46:00;47.53;;;6.73;;
17347;SDS011;8791;50.876;4.342;2023-11-19T07:48:29;48.23;;;6.87;;
17347;SDS011;8791;50.876;4.342;2023-11-19T07:50:55;33.83;;;5.27;;
17347;SDS011;8791;50.876;4.342;2023-11-19T07:53:22;46.27;;;6.50;;
17347;SDS011;8791;50.876;4.342;2023-11-19T07:55:50;40.20;;;4.90;;
17347;SDS011;8791;50.876;4.342;2023-11-19T07:58:17;39.77;;;5.23;;
17347;SDS011;8791;50.876;4.342;2023-11-19T08:00:44;31.63;;;4.87;;
17347;SDS011;8791;50.876;4.342;2023-11-19T08:03:11;40.50;;;5.40;;
17347;SDS011;8791;50.876;4.342;2023-11-19T08:05:38;25.23;;;4.33;;
17347;SDS011;8791;50.876;4.342;2023-11-19T08:08:04;36.03;;;5.00;;
17347;SDS011;8791;50.876;4.342;2023-11-19T08:10:32;32.93;;;5.43;;
17347;SDS011;8791;50.876;4.342;2023-11-19T08:13:00;34.73;;;4.60;;
17347;SDS011;8791;50.876;4.342;2023-11-19T08:15:27;35.70;;;4.93;;
17347;SDS011;8791;50.876;4.342;2023-11-19T08:17:54;27.57;;;4.67;;
17347;SDS011;8791;50.876;4.342;2023-11-19T08:20:21;31.97;;;4.47;;
17347;SDS011;8791;50.876;4.342;2023-11-19T08:22:48;30.53;;;4.40;;
17347;SDS011;8791;50.876;4.342;2023-11-19T08:25:15;33.30;;;4.43;;
17347;SDS011;8791;50.876;4.342;2023-11-19T08:27:42;30.73;;;4.77;;
17347;SDS011;8791;50.876;4.342;2023-11-19T08:30:10;50.70;;;5.13;;
17347;SDS011;8791;50.876;4.342;2023-11-19T08:32:38;33.67;;;4.83;;
17347;SDS011;8791;50.876;4.342;2023-11-19T08:35:05;36.70;;;5.23;;
17347;SDS011;8791;50.876;4.342;2023-11-19T08:37:32;27.87;;;5.03;;
17347;SDS011;8791;50.876;4.342;2023-11-19T08:40:01;36.10;;;4.63;;
17347;SDS011;8791;50.876;4.342;2023-11-19T08:42:29;30.37;;;4.77;;
17347;SDS011;8791;50.876;4.342;2023-11-19T08:44:56;28.23;;;5.13;;
17347;SDS011;8791;50.876;4.342;2023-11-19T08:47:25;30.50;;;4.17;;
17347;SDS011;8791;50.876;4.342;2023-11-19T08:49:51;38.20;;;5.97;;
17347;SDS011;8791;50.876;4.342;2023-11-19T08:52:19;42.67;;;5.43;;
17347;SDS011;8791;50.876;4.342;2023-11-19T08:54:45;31.37;;;4.10;;
17347;SDS011;8791;50.876;4.342;2023-11-19T08:57:12;42.00;;;4.87;;
17347;SDS011;8791;50.876;4.342;2023-11-19T08:59:39;44.33;;;5.30;;
17347;SDS011;8791;50.876;4.342;2023-11-19T09:02:06;40.87;;;5.20;;
17347;SDS011;8791;50.876;4.342;2023-11-19T09:04:34;35.40;;;4.97;;
17347;SDS011;8791;50.876;4.342;2023-11-19T09:07:01;39.90;;;4.83;;
17347;SDS011;8791;50.876;4.342;2023-11-19T09:09:28;40.30;;;4.90;;
17347;SDS011;8791;50.876;4.342;2023-11-19T09:11:55;37.50;;;5.07;;
17347;SDS011;8791;50.876;4.342;2023-11-19T09:14:22;37.40;;;5.17;;
17347;SDS011;8791;50.876;4.342;2023-11-19T09:16:51;40.17;;;6.03;;
17347;SDS011;8791;50.876;4.342;2023-11-19T09:19:17;28.37;;;4.47;;
17347;SDS011;8791;50.876;4.342;2023-11-19T09:21:45;30.90;;;4.60;;
17347;SDS011;8791;50.876;4.342;2023-11-19T09:24:14;32.43;;;5.20;;
17347;SDS011;8791;50.876;4.342;2023-11-19T09:26:41;33.77;;;3.93;;
17347;SDS011;8791;50.876;4.342;2023-11-19T09:29:07;29.07;;;4.40;;
17347;SDS011;8791;50.876;4.342;2023-11-19T09:31:34;25.07;;;5.03;;
17347;SDS011;8791;50.876;4.342;2023-11-19T09:34:01;28.17;;;4.90;;
17347;SDS011;8791;50.876;4.342;2023-11-19T09:36:28;26.87;;;3.60;;
17347;SDS011;8791;50.876;4.342;2023-11-19T09:38:56;29.70;;;3.80;;
17347;SDS011;8791;50.876;4.342;2023-11-19T09:41:25;24.23;;;4.40;;
17347;SDS011;8791;50.876;4.342;2023-11-19T09:43:53;24.73;;;4.00;;
17347;SDS011;8791;50.876;4.342;2023-11-19T09:46:22;24.20;;;4.10;;
17347;SDS011;8791;50.876;4.342;2023-11-19T09:48:51;30.63;;;4.17;;
17347;SDS011;8791;50.876;4.342;2023-11-19T09:51:20;32.50;;;4.40;;
17347;SDS011;8791;50.876;4.342;2023-11-19T09:53:47;22.03;;;4.33;;
17347;SDS011;8791;50.876;4.342;2023-11-19T09:56:16;27.60;;;4.23;;
17347;SDS011;8791;50.876;4.342;2023-11-19T09:58:43;27.30;;;4.17;;
17347;SDS011;8791;50.876;4.342;2023-11-19T10:01:09;22.63;;;4.10;;
17347;SDS011;8791;50.876;4.342;2023-11-19T10:03:37;20.80;;;3.60;;
17347;SDS011;8791;50.876;4.342;2023-11-19T10:06:06;29.07;;;4.83;;
17347;SDS011;8791;50.876;4.342;2023-11-19T10:08:34;35.33;;;5.00;;
17347;SDS011;8791;50.876;4.342;2023-11-19T10:11:04;20.83;;;4.20;;
17347;SDS011;8791;50.876;4.342;2023-11-19T10:13:32;29.53;;;4.20;;
17347;SDS011;8791;50.876;4.342;2023-11-19T10:16:07;23.20;;;3.70;;
17347;SDS011;8791;50.876;4.342;2023-11-19T10:18:37;26.53;;;4.73;;
17347;SDS011;8791;50.876;4.342;2023-11-19T10:21:10;28.43;;;4.70;;
17347;SDS011;8791;50.876;4.342;2023-11-19T10:23:49;26.07;;;4.83;;
17347;SDS011;8791;50.876;4.342;2023-11-19T10:26:18;33.50;;;5.90;;
17347;SDS011;8791;50.876;4.342;2023-11-19T10:28:47;26.07;;;5.13;;
17347;SDS011;8791;50.876;4.342;2023-11-19T10:31:14;24.53;;;4.53;;
17347;SDS011;8791;50.876;4.342;2023-11-19T10:33:44;29.30;;;3.97;;
17347;SDS011;8791;50.876;4.342;2023-11-19T10:36:12;34.87;;;5.77;;
17347;SDS011;8791;50.876;4.342;2023-11-19T10:38:40;27.93;;;4.23;;
17347;SDS011;8791;50.876;4.342;2023-11-19T10:41:26;26.50;;;4.93;;
17347;SDS011;8791;50.876;4.342;2023-11-19T10:43:54;22.70;;;4.03;;
17347;SDS011;8791;50.876;4.342;2023-11-19T10:46:21;24.60;;;4.17;;
17347;SDS011;8791;50.876;4.342;2023-11-19T10:48:48;27.43;;;4.40;;
17347;SDS011;8791;50.876;4.342;2023-11-19T10:51:18;19.87;;;3.17;;
17347;SDS011;8791;50.876;4.342;2023-11-19T10:53:48;28.80;;;4.00;;
17347;SDS011;8791;50.876;4.342;2023-11-19T10:56:17;17.17;;;3.20;;
17347;SDS011;8791;50.876;4.342;2023-11-19T10:58:49;19.50;;;4.27;;
17347;SDS011;8791;50.876;4.342;2023-11-19T11:01:21;22.13;;;3.37;;
17347;SDS011;8791;50.876;4.342;2023-11-19T11:03:50;24.50;;;4.30;;
17347;SDS011;8791;50.876;4.342;2023-11-19T11:06:19;27.17;;;3.77;;
17347;SDS011;8791;50.876;4.342;2023-11-19T11:08:48;20.80;;;4.07;;
17347;SDS011;8791;50.876;4.342;2023-11-19T11:11:17;29.70;;;4.27;;
17347;SDS011;8791;50.876;4.342;2023-11-19T11:13:46;27.70;;;5.00;;
17347;SDS011;8791;50.876;4.342;2023-11-19T11:16:15;24.90;;;4.17;;
17347;SDS011;8791;50.876;4.342;2023-11-19T11:18:47;23.30;;;4.00;;
17347;SDS011;8791;50.876;4.342;2023-11-19T11:21:21;24.07;;;4.33;;
17347;SDS011;8791;50.876;4.342;2023-11-19T11:24:11;23.83;;;4.57;;
17347;SDS011;8791;50.876;4.342;2023-11-19T11:26:59;29.63;;;4.20;;
17347;SDS011;8791;50.876;4.342;2023-11-19T11:29:44;24.70;;;3.93;;
17347;SDS011;8791;50.876;4.342;2023-11-19T11:32:21;32.83;;;4.40;;
17347;SDS011;8791;50.876;4.342;2023-11-19T11:35:01;33.90;;;5.87;;
17347;SDS011;8791;50.876;4.342;2023-11-19T11:37:38;28.50;;;4.10;;
17347;SDS011;8791;50.876;4.342;2023-11-19T11:40:20;21.77;;;4.50;;
17347;SDS011;8791;50.876;4.342;2023-11-19T11:42:53;27.63;;;5.47;;
17347;SDS011;8791;50.876;4.342;2023-11-19T11:45:20;25.90;;;4.73;;
17347;SDS011;8791;50.876;4.342;2023-11-19T11:48:11;27.80;;;5.10;;
17347;SDS011;8791;50.876;4.342;2023-11-19T11:50:51;41.50;;;5.50;;
17347;SDS011;8791;50.876;4.342;2023-11-19T11:53:24;35.80;;;4.93;;
17347;SDS011;8791;50.876;4.342;2023-11-19T11:56:01;29.60;;;4.00;;
17347;SDS011;8791;50.876;4.342;2023-11-19T11:58:32;23.20;;;3.63;;
17347;SDS011;8791;50.876;4.342;2023-11-19T12:01:03;27.87;;;4.97;;
17347;SDS011;8791;50.876;4.342;2023-11-19T12:03:32;22.83;;;3.97;;
17347;SDS011;8791;50.876;4.342;2023-11-19T12:06:03;21.93;;;4.57;;
17347;SDS011;8791;50.876;4.342;2023-11-19T12:08:30;22.90;;;3.97;;
17347;SDS011;8791;50.876;4.342;2023-11-19T12:10:57;26.80;;;4.30;;
17347;SDS011;8791;50.876;4.342;2023-11-19T12:13:29;18.67;;;3.77;;
17347;SDS011;8791;50.876;4.342;2023-11-19T12:16:12;22.70;;;3.33;;
17347;SDS011;8791;50.876;4.342;2023-11-19T12:18:39;18.60;;;3.63;;
17347;SDS011;8791;50.876;4.342;2023-11-19T12:21:09;19.63;;;3.27;;
17347;SDS011;8791;50.876;4.342;2023-11-19T12:23:43;18.93;;;3.47;;
17347;SDS011;8791;50.876;4.342;2023-11-19T12:29:00;20.27;;;3.80;;
17347;SDS011;8791;50.876;4.342;2023-11-19T12:31:31;26.77;;;4.47;;
17347;SDS011;8791;50.876;4.342;2023-11-19T12:34:00;26.93;;;3.50;;
17347;SDS011;8791;50.876;4.342;2023-11-19T12:36:33;20.03;;;3.23;;
17347;SDS011;8791;50.876;4.342;2023-11-19T12:39:00;20.90;;;3.57;;
17347;SDS011;8791;50.876;4.342;2023-11-19T12:41:27;20.00;;;3.90;;
17347;SDS011;8791;50.876;4.342;2023-11-19T12:44:08;22.83;;;3.97;;
17347;SDS011;8791;50.876;4.342;2023-11-19T12:46:36;17.63;;;3.77;;
17347;SDS011;8791;50.876;4.342;2023-11-19T12:49:03;31.77;;;4.10;;
17347;SDS011;8791;50.876;4.342;2023-11-19T12:51:31;34.10;;;4.23;;
17347;SDS011;8791;50.876;4.342;2023-11-19T12:53:59;22.03;;;4.10;;
17347;SDS011;8791;50.876;4.342;2023-11-19T12:56:26;17.00;;;3.93;;
17347;SDS011;8791;50.876;4.342;2023-11-19T12:58:54;26.70;;;5.00;;
17347;SDS011;8791;50.876;4.342;2023-11-19T13:01:21;28.23;;;4.30;;
17347;SDS011;8791;50.876;4.342;2023-11-19T13:03:48;24.10;;;4.27;;
17347;SDS011;8791;50.876;4.342;2023-11-19T13:06:16;31.20;;;4.13;;
17347;SDS011;8791;50.876;4.342;2023-11-19T13:08:46;26.10;;;3.87;;
17347;SDS011;8791;50.876;4.342;2023-11-19T13:11:29;31.33;;;4.17;;
17347;SDS011;8791;50.876;4.342;2023-11-19T13:13:57;27.37;;;4.73;;
17347;SDS011;8791;50.876;4.342;2023-11-19T13:16:25;53.37;;;9.77;;
17347;SDS011;8791;50.876;4.342;2023-11-19T13:18:53;26.00;;;4.07;;
17347;SDS011;8791;50.876;4.342;2023-11-19T13:21:22;26.00;;;5.20;;
17347;SDS011;8791;50.876;4.342;2023-11-19T13:23:49;32.80;;;4.93;;
17347;SDS011;8791;50.876;4.342;2023-11-19T13:26:17;19.43;;;4.20;;
17347;SDS011;8791;50.876;4.342;2023-11-19T13:28:44;20.43;;;4.50;;
17347;SDS011;8791;50.876;4.342;2023-11-19T13:31:11;27.43;;;4.17;;
17347;SDS011;8791;50.876;4.342;2023-11-19T13:33:38;24.63;;;4.40;;
17347;SDS011;8791;50.876;4.342;2023-11-19T13:36:05;23.03;;;3.97;;
17347;SDS011;8791;50.876;4.342;2023-11-19T13:38:32;28.23;;;4.60;;
17347;SDS011;8791;50.876;4.342;2023-11-19T13:41:00;27.07;;;4.20;;
17347;SDS011;8791;50.876;4.342;2023-11-19T13:43:28;22.23;;;4.40;;
17347;SDS011;8791;50.876;4.342;2023-11-19T13:45:55;18.87;;;3.63;;
17347;SDS011;8791;50.876;4.342;2023-11-19T13:48:23;31.83;;;5.10;;
17347;SDS011;8791;50.876;4.342;2023-11-19T13:50:51;30.27;;;4.60;;
17347;SDS011;8791;50.876;4.342;2023-11-19T13:53:18;23.27;;;4.43;;
17347;SDS011;8791;50.876;4.342;2023-11-19T13:55:45;21.87;;;3.90;;
17347;SDS011;8791;50.876;4.342;2023-11-19T13:58:12;28.90;;;4.30;;
17347;SDS011;8791;50.876;4.342;2023-11-19T14:00:41;34.73;;;5.67;;
17347;SDS011;8791;50.876;4.342;2023-11-19T14:03:08;23.93;;;4.43;;
17347;SDS011;8791;50.876;4.342;2023-11-19T14:05:36;35.00;;;5.20;;
17347;SDS011;8791;50.876;4.342;2023-11-19T14:08:03;23.00;;;4.50;;
17347;SDS011;8791;50.876;4.342;2023-11-19T14:10:39;20.53;;;4.07;;
17347;SDS011;8791;50.876;4.342;2023-11-19T14:13:06;24.50;;;4.70;;
17347;SDS011;8791;50.876;4.342;2023-11-19T14:15:33;33.90;;;5.00;;
17347;SDS011;8791;50.876;4.342;2023-11-19T14:18:01;29.50;;;5.70;;
17347;SDS011;8791;50.876;4.342;2023-11-19T14:20:32;31.00;;;5.40;;
17347;SDS011;8791;50.876;4.342;2023-11-19T14:22:58;29.47;;;4.97;;
17347;SDS011;8791;50.876;4.342;2023-11-19T14:25:25;39.60;;;5.20;;
17347;SDS011;8791;50.876;4.342;2023-11-19T14:27:52;28.57;;;5.43;;
17347;SDS011;8791;50.876;4.342;2023-11-19T14:30:20;31.00;;;5.47;;
17347;SDS011;8791;50.876;4.342;2023-11-19T14:32:49;31.73;;;4.93;;
17347;SDS011;8791;50.876;4.342;2023-11-19T14:35:17;29.70;;;4.43;;
17347;SDS011;8791;50.876;4.342;2023-11-19T14:37:45;27.53;;;5.17;;
17347;SDS011;8791;50.876;4.342;2023-11-19T14:40:12;32.93;;;5.77;;
17347;SDS011;8791;50.876;4.342;2023-11-19T14:42:39;28.70;;;5.00;;
17347;SDS011;8791;50.876;4.342;2023-11-19T14:45:07;29.67;;;4.70;;
17347;SDS011;8791;50.876;4.342;2023-11-19T14:47:37;28.73;;;5.13;;
17347;SDS011;8791;50.876;4.342;2023-11-19T14:50:04;32.77;;;5.13;;
17347;SDS011;8791;50.876;4.342;2023-11-19T14:52:35;40.60;;;5.53;;
17347;SDS011;8791;50.876;4.342;2023-11-19T14:55:03;32.83;;;4.30;;
17347;SDS011;8791;50.876;4.342;2023-11-19T14:57:39;28.90;;;5.43;;